sensor_id;sensor_type;location;lat;lon;timestamp;temperature;humidity
66373;SHT30;53168;51.146;17.120;2023-07-22T00:01:28;16.99;73.25
66373;SHT30;53168;51.146;17.120;2023-07-22T00:04:05;16.92;73.40
66373;SHT30;53168;51.146;17.120;2023-07-22T00:06:39;16.88;73.49
66373;SHT30;53168;51.146;17.120;2023-07-22T00:09:16;16.84;73.54
66373;SHT30;53168;51.146;17.120;2023-07-22T00:12:04;16.79;73.58
66373;SHT30;53168;51.146;17.120;2023-07-22T00:14:41;16.75;73.60
66373;SHT30;53168;51.146;17.120;2023-07-22T00:17:15;16.69;73.55
66373;SHT30;53168;51.146;17.120;2023-07-22T00:19:49;16.64;73.60
66373;SHT30;53168;51.146;17.120;2023-07-22T00:22:24;16.61;73.61
66373;SHT30;53168;51.146;17.120;2023-07-22T00:24:58;16.57;73.61
66373;SHT30;53168;51.146;17.120;2023-07-22T00:27:32;16.54;73.66
66373;SHT30;53168;51.146;17.120;2023-07-22T00:30:09;16.51;73.64
66373;SHT30;53168;51.146;17.120;2023-07-22T00:32:42;16.50;73.68
66373;SHT30;53168;51.146;17.120;2023-07-22T00:35:16;16.48;73.82
66373;SHT30;53168;51.146;17.120;2023-07-22T00:37:51;16.46;73.85
66373;SHT30;53168;51.146;17.120;2023-07-22T00:40:25;16.43;73.86
66373;SHT30;53168;51.146;17.120;2023-07-22T00:43:00;16.40;73.94
66373;SHT30;53168;51.146;17.120;2023-07-22T00:45:36;16.36;74.04
66373;SHT30;53168;51.146;17.120;2023-07-22T00:48:11;16.33;74.13
66373;SHT30;53168;51.146;17.120;2023-07-22T00:50:47;16.28;74.10
66373;SHT30;53168;51.146;17.120;2023-07-22T00:53:21;16.26;74.21
66373;SHT30;53168;51.146;17.120;2023-07-22T00:55:56;16.24;74.24
66373;SHT30;53168;51.146;17.120;2023-07-22T00:58:30;16.22;74.24
66373;SHT30;53168;51.146;17.120;2023-07-22T01:01:04;16.21;74.28
66373;SHT30;53168;51.146;17.120;2023-07-22T01:03:38;16.18;74.30
66373;SHT30;53168;51.146;17.120;2023-07-22T01:06:16;16.17;74.34
66373;SHT30;53168;51.146;17.120;2023-07-22T01:08:51;16.18;74.32
66373;SHT30;53168;51.146;17.120;2023-07-22T01:11:25;16.18;74.42
66373;SHT30;53168;51.146;17.120;2023-07-22T01:13:58;16.15;74.48
66373;SHT30;53168;51.146;17.120;2023-07-22T01:16:32;16.12;74.53
66373;SHT30;53168;51.146;17.120;2023-07-22T01:19:07;16.09;74.60
66373;SHT30;53168;51.146;17.120;2023-07-22T01:21:59;16.07;74.60
66373;SHT30;53168;51.146;17.120;2023-07-22T02:00:31;15.74;75.61
66373;SHT30;53168;51.146;17.120;2023-07-22T02:03:07;15.72;75.79
66373;SHT30;53168;51.146;17.120;2023-07-22T02:05:41;15.70;75.80
66373;SHT30;53168;51.146;17.120;2023-07-22T02:08:15;15.66;75.89
66373;SHT30;53168;51.146;17.120;2023-07-22T02:10:49;15.63;75.90
66373;SHT30;53168;51.146;17.120;2023-07-22T02:13:23;15.60;75.95
66373;SHT30;53168;51.146;17.120;2023-07-22T02:15:56;15.58;76.00
66373;SHT30;53168;51.146;17.120;2023-07-22T02:18:31;15.57;76.06
66373;SHT30;53168;51.146;17.120;2023-07-22T02:21:04;15.54;76.09
66373;SHT30;53168;51.146;17.120;2023-07-22T02:23:38;15.54;76.13
66373;SHT30;53168;51.146;17.120;2023-07-22T02:26:12;15.53;76.20
66373;SHT30;53168;51.146;17.120;2023-07-22T02:32:10;15.54;76.24
66373;SHT30;53168;51.146;17.120;2023-07-22T02:46:04;15.75;76.21
66373;SHT30;53168;51.146;17.120;2023-07-22T03:42:07;16.26;75.20
66373;SHT30;53168;51.146;17.120;2023-07-22T03:44:41;16.26;75.21
66373;SHT30;53168;51.146;17.120;2023-07-22T03:47:15;16.27;75.30
66373;SHT30;53168;51.146;17.120;2023-07-22T03:49:49;16.29;75.26
66373;SHT30;53168;51.146;17.120;2023-07-22T03:52:23;16.31;75.22
66373;SHT30;53168;51.146;17.120;2023-07-22T03:54:56;16.30;75.21
66373;SHT30;53168;51.146;17.120;2023-07-22T03:57:31;16.27;75.20
66373;SHT30;53168;51.146;17.120;2023-07-22T04:00:11;16.24;75.21
66373;SHT30;53168;51.146;17.120;2023-07-22T04:03:00;16.22;75.32
66373;SHT30;53168;51.146;17.120;2023-07-22T04:05:34;16.16;75.40
66373;SHT30;53168;51.146;17.120;2023-07-22T05:08:58;17.27;73.00
66373;SHT30;53168;51.146;17.120;2023-07-22T05:11:34;17.29;72.76
66373;SHT30;53168;51.146;17.120;2023-07-22T05:14:09;17.33;72.70
66373;SHT30;53168;51.146;17.120;2023-07-22T05:16:43;17.37;72.38
66373;SHT30;53168;51.146;17.120;2023-07-22T05:19:17;17.38;72.18
66373;SHT30;53168;51.146;17.120;2023-07-22T05:21:51;17.41;72.13
66373;SHT30;53168;51.146;17.120;2023-07-22T05:24:25;17.45;71.97
66373;SHT30;53168;51.146;17.120;2023-07-22T05:26:59;17.51;71.92
66373;SHT30;53168;51.146;17.120;2023-07-22T05:29:39;17.55;71.66
66373;SHT30;53168;51.146;17.120;2023-07-22T05:32:25;17.61;71.62
66373;SHT30;53168;51.146;17.120;2023-07-22T05:35:04;17.68;71.35
66373;SHT30;53168;51.146;17.120;2023-07-22T05:37:40;17.74;71.16
66373;SHT30;53168;51.146;17.120;2023-07-22T05:40:14;17.77;70.95
66373;SHT30;53168;51.146;17.120;2023-07-22T05:42:48;17.79;70.52
66373;SHT30;53168;51.146;17.120;2023-07-22T05:45:23;17.81;70.42
66373;SHT30;53168;51.146;17.120;2023-07-22T05:47:56;17.84;70.29
66373;SHT30;53168;51.146;17.120;2023-07-22T05:50:30;17.89;70.17
66373;SHT30;53168;51.146;17.120;2023-07-22T05:53:04;17.96;70.16
66373;SHT30;53168;51.146;17.120;2023-07-22T05:55:38;18.07;69.94
66373;SHT30;53168;51.146;17.120;2023-07-22T05:58:18;18.15;69.72
66373;SHT30;53168;51.146;17.120;2023-07-22T06:00:56;18.15;69.20
66373;SHT30;53168;51.146;17.120;2023-07-22T06:03:30;18.17;69.57
66373;SHT30;53168;51.146;17.120;2023-07-22T06:06:04;18.26;69.15
66373;SHT30;53168;51.146;17.120;2023-07-22T06:08:38;18.33;69.06
66373;SHT30;53168;51.146;17.120;2023-07-22T06:11:11;18.37;68.70
66373;SHT30;53168;51.146;17.120;2023-07-22T06:13:45;18.40;68.62
66373;SHT30;53168;51.146;17.120;2023-07-22T06:16:19;18.46;68.40
66373;SHT30;53168;51.146;17.120;2023-07-22T06:18:52;18.54;68.30
66373;SHT30;53168;51.146;17.120;2023-07-22T06:21:26;18.65;68.33
66373;SHT30;53168;51.146;17.120;2023-07-22T06:24:00;18.76;68.09
66373;SHT30;53168;51.146;17.120;2023-07-22T06:26:33;18.88;67.97
66373;SHT30;53168;51.146;17.120;2023-07-22T06:29:07;18.97;67.30
66373;SHT30;53168;51.146;17.120;2023-07-22T06:31:41;18.99;66.84
66373;SHT30;53168;51.146;17.120;2023-07-22T06:34:16;18.99;66.62
66373;SHT30;53168;51.146;17.120;2023-07-22T06:36:50;19.04;66.31
66373;SHT30;53168;51.146;17.120;2023-07-22T06:39:24;19.11;66.04
66373;SHT30;53168;51.146;17.120;2023-07-22T06:41:58;19.18;66.16
66373;SHT30;53168;51.146;17.120;2023-07-22T06:44:32;19.19;66.15
66373;SHT30;53168;51.146;17.120;2023-07-22T06:47:07;19.24;65.93
66373;SHT30;53168;51.146;17.120;2023-07-22T07:19:12;19.89;62.67
66373;SHT30;53168;51.146;17.120;2023-07-22T07:22:30;19.86;62.37
66373;SHT30;53168;51.146;17.120;2023-07-22T07:25:13;19.78;62.19
66373;SHT30;53168;51.146;17.120;2023-07-22T07:27:48;19.70;62.23
66373;SHT30;53168;51.146;17.120;2023-07-22T07:30:24;19.65;62.08
66373;SHT30;53168;51.146;17.120;2023-07-22T07:33:00;19.58;62.21
66373;SHT30;53168;51.146;17.120;2023-07-22T07:35:36;19.63;62.34
66373;SHT30;53168;51.146;17.120;2023-07-22T07:38:12;19.68;62.33
66373;SHT30;53168;51.146;17.120;2023-07-22T07:40:58;19.86;62.54
66373;SHT30;53168;51.146;17.120;2023-07-22T07:43:37;20.07;62.13
66373;SHT30;53168;51.146;17.120;2023-07-22T07:46:21;20.19;61.70
66373;SHT30;53168;51.146;17.120;2023-07-22T07:48:58;20.14;61.17
66373;SHT30;53168;51.146;17.120;2023-07-22T07:51:43;20.17;60.83
66373;SHT30;53168;51.146;17.120;2023-07-22T07:54:27;20.25;60.68
66373;SHT30;53168;51.146;17.120;2023-07-22T07:57:07;20.37;60.30
66373;SHT30;53168;51.146;17.120;2023-07-22T07:59:42;20.49;60.02
66373;SHT30;53168;51.146;17.120;2023-07-22T08:02:16;20.69;60.00
66373;SHT30;53168;51.146;17.120;2023-07-22T08:04:52;20.95;59.62
66373;SHT30;53168;51.146;17.120;2023-07-22T08:07:29;21.03;59.20
66373;SHT30;53168;51.146;17.120;2023-07-22T08:10:04;20.98;59.30
66373;SHT30;53168;51.146;17.120;2023-07-22T08:12:44;20.80;59.46
66373;SHT30;53168;51.146;17.120;2023-07-22T08:15:18;20.82;59.09
66373;SHT30;53168;51.146;17.120;2023-07-22T08:17:57;20.76;58.73
66373;SHT30;53168;51.146;17.120;2023-07-22T08:20:33;20.88;58.95
66373;SHT30;53168;51.146;17.120;2023-07-22T08:23:18;20.95;58.79
66373;SHT30;53168;51.146;17.120;2023-07-22T08:25:52;20.95;58.26
66373;SHT30;53168;51.146;17.120;2023-07-22T08:28:29;21.02;57.94
66373;SHT30;53168;51.146;17.120;2023-07-22T08:31:03;21.11;57.39
66373;SHT30;53168;51.146;17.120;2023-07-22T08:33:37;21.06;57.80
66373;SHT30;53168;51.146;17.120;2023-07-22T08:36:13;21.12;57.30
66373;SHT30;53168;51.146;17.120;2023-07-22T08:38:47;21.27;56.94
66373;SHT30;53168;51.146;17.120;2023-07-22T08:41:23;21.40;57.07
66373;SHT30;53168;51.146;17.120;2023-07-22T08:44:20;21.40;56.56
66373;SHT30;53168;51.146;17.120;2023-07-22T08:46:57;21.40;56.12
66373;SHT30;53168;51.146;17.120;2023-07-22T08:49:37;21.43;56.47
66373;SHT30;53168;51.146;17.120;2023-07-22T08:52:14;21.57;56.29
66373;SHT30;53168;51.146;17.120;2023-07-22T08:54:50;21.73;55.54
66373;SHT30;53168;51.146;17.120;2023-07-22T09:00:18;21.96;54.06
66373;SHT30;53168;51.146;17.120;2023-07-22T09:02:53;22.13;53.62
66373;SHT30;53168;51.146;17.120;2023-07-22T09:05:29;22.30;53.17
66373;SHT30;53168;51.146;17.120;2023-07-22T09:08:09;22.41;52.93
66373;SHT30;53168;51.146;17.120;2023-07-22T09:10:44;22.52;52.79
66373;SHT30;53168;51.146;17.120;2023-07-22T09:13:20;22.45;52.96
66373;SHT30;53168;51.146;17.120;2023-07-22T09:16:02;22.25;52.93
66373;SHT30;53168;51.146;17.120;2023-07-22T09:18:36;22.20;52.61
66373;SHT30;53168;51.146;17.120;2023-07-22T09:21:11;22.35;52.37
66373;SHT30;53168;51.146;17.120;2023-07-22T09:23:46;22.59;52.30
66373;SHT30;53168;51.146;17.120;2023-07-22T09:26:24;22.87;51.67
66373;SHT30;53168;51.146;17.120;2023-07-22T09:29:05;22.83;50.99
66373;SHT30;53168;51.146;17.120;2023-07-22T09:31:50;22.77;51.11
66373;SHT30;53168;51.146;17.120;2023-07-22T09:34:31;22.57;50.51
66373;SHT30;53168;51.146;17.120;2023-07-22T09:37:16;22.25;50.36
66373;SHT30;53168;51.146;17.120;2023-07-22T09:39:59;21.99;50.47
66373;SHT30;53168;51.146;17.120;2023-07-22T09:43:04;21.75;50.88
66373;SHT30;53168;51.146;17.120;2023-07-22T09:45:48;21.81;51.17
66373;SHT30;53168;51.146;17.120;2023-07-22T09:48:53;22.18;51.03
66373;SHT30;53168;51.146;17.120;2023-07-22T09:54:36;22.49;50.30
66373;SHT30;53168;51.146;17.120;2023-07-22T09:57:19;22.70;50.54
66373;SHT30;53168;51.146;17.120;2023-07-22T09:59:54;23.03;49.45
66373;SHT30;53168;51.146;17.120;2023-07-22T10:02:58;23.27;49.10
66373;SHT30;53168;51.146;17.120;2023-07-22T10:05:58;23.29;48.27
66373;SHT30;53168;51.146;17.120;2023-07-22T10:08:38;23.05;48.35
66373;SHT30;53168;51.146;17.120;2023-07-22T10:26:48;23.35;47.22
66373;SHT30;53168;51.146;17.120;2023-07-22T10:29:29;23.38;46.67
66373;SHT30;53168;51.146;17.120;2023-07-22T10:32:03;23.26;46.49
66373;SHT30;53168;51.146;17.120;2023-07-22T10:34:35;23.22;46.21
66373;SHT30;53168;51.146;17.120;2023-07-22T10:37:11;23.19;46.35
66373;SHT30;53168;51.146;17.120;2023-07-22T10:39:41;23.13;46.25
66373;SHT30;53168;51.146;17.120;2023-07-22T10:45:28;23.04;46.46
66373;SHT30;53168;51.146;17.120;2023-07-22T10:48:05;23.22;46.11
66373;SHT30;53168;51.146;17.120;2023-07-22T10:50:41;23.40;45.64
66373;SHT30;53168;51.146;17.120;2023-07-22T10:53:27;23.35;45.03
66373;SHT30;53168;51.146;17.120;2023-07-22T10:56:07;23.26;45.27
66373;SHT30;53168;51.146;17.120;2023-07-22T10:59:02;23.19;44.22
66373;SHT30;53168;51.146;17.120;2023-07-22T11:01:34;23.42;44.65
66373;SHT30;53168;51.146;17.120;2023-07-22T11:04:16;23.81;43.86
66373;SHT30;53168;51.146;17.120;2023-07-22T11:07:13;24.16;43.54
66373;SHT30;53168;51.146;17.120;2023-07-22T11:09:46;24.40;43.61
66373;SHT30;53168;51.146;17.120;2023-07-22T11:12:17;24.29;43.63
66373;SHT30;53168;51.146;17.120;2023-07-22T11:14:52;24.04;42.69
66373;SHT30;53168;51.146;17.120;2023-07-22T11:17:33;23.74;42.66
66373;SHT30;53168;51.146;17.120;2023-07-22T11:20:04;23.57;42.61
66373;SHT30;53168;51.146;17.120;2023-07-22T11:22:36;23.45;42.61
66373;SHT30;53168;51.146;17.120;2023-07-22T11:25:09;23.42;42.86
66373;SHT30;53168;51.146;17.120;2023-07-22T11:27:47;23.45;42.61
66373;SHT30;53168;51.146;17.120;2023-07-22T11:30:17;23.60;42.78
66373;SHT30;53168;51.146;17.120;2023-07-22T11:32:47;24.20;42.52
66373;SHT30;53168;51.146;17.120;2023-07-22T11:35:20;24.54;42.14
66373;SHT30;53168;51.146;17.120;2023-07-22T11:37:51;24.74;41.66
66373;SHT30;53168;51.146;17.120;2023-07-22T12:22:25;24.70;39.70
66373;SHT30;53168;51.146;17.120;2023-07-22T12:25:01;24.55;39.67
66373;SHT30;53168;51.146;17.120;2023-07-22T12:27:37;24.61;39.71
66373;SHT30;53168;51.146;17.120;2023-07-22T12:30:13;24.85;39.59
66373;SHT30;53168;51.146;17.120;2023-07-22T12:32:51;25.64;38.29
66373;SHT30;53168;51.146;17.120;2023-07-22T12:35:25;26.44;37.31
66373;SHT30;53168;51.146;17.120;2023-07-22T12:37:59;26.69;36.34
66373;SHT30;53168;51.146;17.120;2023-07-22T12:40:33;26.46;36.68
66373;SHT30;53168;51.146;17.120;2023-07-22T12:43:07;26.16;37.38
66373;SHT30;53168;51.146;17.120;2023-07-22T12:45:42;25.86;37.12
66373;SHT30;53168;51.146;17.120;2023-07-22T12:48:16;25.44;37.07
66373;SHT30;53168;51.146;17.120;2023-07-22T12:51:28;25.20;37.01
66373;SHT30;53168;51.146;17.120;2023-07-22T12:54:02;25.27;37.04
66373;SHT30;53168;51.146;17.120;2023-07-22T12:56:36;25.06;36.52
66373;SHT30;53168;51.146;17.120;2023-07-22T12:59:10;25.06;36.58
66373;SHT30;53168;51.146;17.120;2023-07-22T13:01:45;25.21;36.26
66373;SHT30;53168;51.146;17.120;2023-07-22T13:04:19;25.54;36.34
66373;SHT30;53168;51.146;17.120;2023-07-22T13:06:53;25.84;36.21
66373;SHT30;53168;51.146;17.120;2023-07-22T13:09:27;26.32;35.22
66373;SHT30;53168;51.146;17.120;2023-07-22T13:12:01;26.42;34.60
66373;SHT30;53168;51.146;17.120;2023-07-22T13:14:36;26.34;34.87
66373;SHT30;53168;51.146;17.120;2023-07-22T13:17:10;26.26;35.08
66373;SHT30;53168;51.146;17.120;2023-07-22T13:19:45;26.17;34.81
66373;SHT30;53168;51.146;17.120;2023-07-22T13:22:19;26.48;34.84
66373;SHT30;53168;51.146;17.120;2023-07-22T13:24:54;27.36;33.44
66373;SHT30;53168;51.146;17.120;2023-07-22T13:27:28;27.91;32.91
66373;SHT30;53168;51.146;17.120;2023-07-22T13:30:02;27.88;32.48
66373;SHT30;53168;51.146;17.120;2023-07-22T13:32:36;27.46;32.12
66373;SHT30;53168;51.146;17.120;2023-07-22T13:35:14;27.61;31.96
66373;SHT30;53168;51.146;17.120;2023-07-22T13:37:50;27.84;32.37
66373;SHT30;53168;51.146;17.120;2023-07-22T13:44:43;28.37;32.25
66373;SHT30;53168;51.146;17.120;2023-07-22T13:47:20;29.05;31.43
66373;SHT30;53168;51.146;17.120;2023-07-22T13:50:11;28.71;30.63
66373;SHT30;53168;51.146;17.120;2023-07-22T13:52:45;28.08;31.13
66373;SHT30;53168;51.146;17.120;2023-07-22T13:55:19;28.01;30.69
66373;SHT30;53168;51.146;17.120;2023-07-22T13:57:54;28.10;30.89
66373;SHT30;53168;51.146;17.120;2023-07-22T14:00:29;28.38;30.89
66373;SHT30;53168;51.146;17.120;2023-07-22T14:03:03;28.22;31.17
66373;SHT30;53168;51.146;17.120;2023-07-22T14:05:41;28.15;30.76
66373;SHT30;53168;51.146;17.120;2023-07-22T14:29:15;27.47;31.34
66373;SHT30;53168;51.146;17.120;2023-07-22T14:32:13;27.51;31.24
66373;SHT30;53168;51.146;17.120;2023-07-22T14:34:47;27.32;31.28
66373;SHT30;53168;51.146;17.120;2023-07-22T14:37:21;27.03;30.95
66373;SHT30;53168;51.146;17.120;2023-07-22T14:39:55;27.02;31.39
66373;SHT30;53168;51.146;17.120;2023-07-22T14:42:29;26.91;31.37
66373;SHT30;53168;51.146;17.120;2023-07-22T14:45:03;27.16;31.05
66373;SHT30;53168;51.146;17.120;2023-07-22T14:47:41;27.45;31.21
66373;SHT30;53168;51.146;17.120;2023-07-22T14:50:15;27.38;31.18
66373;SHT30;53168;51.146;17.120;2023-07-22T14:52:50;27.01;31.26
66373;SHT30;53168;51.146;17.120;2023-07-22T14:55:23;26.68;31.44
66373;SHT30;53168;51.146;17.120;2023-07-22T14:57:57;26.39;31.46
66373;SHT30;53168;51.146;17.120;2023-07-22T15:00:31;26.42;31.73
66373;SHT30;53168;51.146;17.120;2023-07-22T15:03:07;26.38;31.83
66373;SHT30;53168;51.146;17.120;2023-07-22T15:05:42;26.26;32.17
66373;SHT30;53168;51.146;17.120;2023-07-22T15:08:16;26.10;31.96
66373;SHT30;53168;51.146;17.120;2023-07-22T15:10:50;25.91;32.06
66373;SHT30;53168;51.146;17.120;2023-07-22T15:13:25;25.87;32.17
66373;SHT30;53168;51.146;17.120;2023-07-22T15:16:16;25.94;32.18
66373;SHT30;53168;51.146;17.120;2023-07-22T15:19:00;26.70;31.53
66373;SHT30;53168;51.146;17.120;2023-07-22T15:21:34;27.88;30.80
66373;SHT30;53168;51.146;17.120;2023-07-22T15:24:08;29.01;30.04
66373;SHT30;53168;51.146;17.120;2023-07-22T15:26:42;29.84;29.19
66373;SHT30;53168;51.146;17.120;2023-07-22T15:29:16;29.61;29.23
66373;SHT30;53168;51.146;17.120;2023-07-22T15:31:53;28.67;29.61
66373;SHT30;53168;51.146;17.120;2023-07-22T15:34:29;28.83;29.24
66373;SHT30;53168;51.146;17.120;2023-07-22T15:37:05;29.07;28.99
66373;SHT30;53168;51.146;17.120;2023-07-22T15:39:39;28.89;29.18
66373;SHT30;53168;51.146;17.120;2023-07-22T15:42:15;29.39;28.53
66373;SHT30;53168;51.146;17.120;2023-07-22T15:44:51;29.89;28.05
66373;SHT30;53168;51.146;17.120;2023-07-22T15:47:25;30.25;28.34
66373;SHT30;53168;51.146;17.120;2023-07-22T15:50:09;29.70;28.04
66373;SHT30;53168;51.146;17.120;2023-07-22T15:52:43;28.68;28.17
66373;SHT30;53168;51.146;17.120;2023-07-22T15:55:26;27.73;28.66
66373;SHT30;53168;51.146;17.120;2023-07-22T15:58:00;27.08;29.39
66373;SHT30;53168;51.146;17.120;2023-07-22T16:00:34;27.29;29.36
66373;SHT30;53168;51.146;17.120;2023-07-22T16:03:10;28.25;28.89
66373;SHT30;53168;51.146;17.120;2023-07-22T16:05:47;29.35;28.55
66373;SHT30;53168;51.146;17.120;2023-07-22T16:08:21;29.33;28.06
66373;SHT30;53168;51.146;17.120;2023-07-22T16:11:12;29.14;28.34
66373;SHT30;53168;51.146;17.120;2023-07-22T16:13:46;29.50;28.03
66373;SHT30;53168;51.146;17.120;2023-07-22T16:16:21;29.23;28.23
66373;SHT30;53168;51.146;17.120;2023-07-22T16:18:56;29.21;28.25
66373;SHT30;53168;51.146;17.120;2023-07-22T16:21:36;29.49;28.17
66373;SHT30;53168;51.146;17.120;2023-07-22T16:24:13;30.11;27.85
66373;SHT30;53168;51.146;17.120;2023-07-22T16:26:50;30.56;27.34
66373;SHT30;53168;51.146;17.120;2023-07-22T16:29:53;30.26;27.49
66373;SHT30;53168;51.146;17.120;2023-07-22T16:32:29;30.10;27.49
66373;SHT30;53168;51.146;17.120;2023-07-22T16:35:18;30.32;27.10
66373;SHT30;53168;51.146;17.120;2023-07-22T16:37:56;30.54;27.31
66373;SHT30;53168;51.146;17.120;2023-07-22T16:40:38;30.83;27.01
66373;SHT30;53168;51.146;17.120;2023-07-22T16:43:16;30.94;26.89
66373;SHT30;53168;51.146;17.120;2023-07-22T16:45:57;30.90;26.50
66373;SHT30;53168;51.146;17.120;2023-07-22T16:48:32;30.94;26.78
66373;SHT30;53168;51.146;17.120;2023-07-22T16:51:06;30.90;26.10
66373;SHT30;53168;51.146;17.120;2023-07-22T16:53:40;30.59;26.41
66373;SHT30;53168;51.146;17.120;2023-07-22T16:56:23;30.50;26.38
66373;SHT30;53168;51.146;17.120;2023-07-22T16:58:59;30.43;26.44
66373;SHT30;53168;51.146;17.120;2023-07-22T17:01:43;30.40;26.53
66373;SHT30;53168;51.146;17.120;2023-07-22T17:04:17;30.37;26.40
66373;SHT30;53168;51.146;17.120;2023-07-22T17:06:51;30.19;26.51
66373;SHT30;53168;51.146;17.120;2023-07-22T17:09:28;30.13;26.74
66373;SHT30;53168;51.146;17.120;2023-07-22T17:12:20;30.02;26.79
66373;SHT30;53168;51.146;17.120;2023-07-22T17:15:21;29.78;27.07
66373;SHT30;53168;51.146;17.120;2023-07-22T17:19:13;28.74;27.51
66373;SHT30;53168;51.146;17.120;2023-07-22T17:21:59;27.71;28.14
66373;SHT30;53168;51.146;17.120;2023-07-22T17:29:19;25.79;29.34
66373;SHT30;53168;51.146;17.120;2023-07-22T17:36:01;24.83;30.29
66373;SHT30;53168;51.146;17.120;2023-07-22T17:38:58;24.50;30.81
66373;SHT30;53168;51.146;17.120;2023-07-22T17:52:19;23.41;32.64
66373;SHT30;53168;51.146;17.120;2023-07-22T18:16:59;22.00;35.29
66373;SHT30;53168;51.146;17.120;2023-07-22T18:20:30;21.84;35.68
66373;SHT30;53168;51.146;17.120;2023-07-22T18:31:18;21.30;36.73
66373;SHT30;53168;51.146;17.120;2023-07-22T18:33:49;21.16;37.18
66373;SHT30;53168;51.146;17.120;2023-07-22T18:36:19;21.00;37.48
66373;SHT30;53168;51.146;17.120;2023-07-22T18:38:49;20.85;37.71
66373;SHT30;53168;51.146;17.120;2023-07-22T18:41:19;20.71;37.95
66373;SHT30;53168;51.146;17.120;2023-07-22T18:43:50;20.58;38.43
66373;SHT30;53168;51.146;17.120;2023-07-22T18:46:21;20.42;38.79
66373;SHT30;53168;51.146;17.120;2023-07-22T18:48:50;20.25;39.29
66373;SHT30;53168;51.146;17.120;2023-07-22T18:51:20;20.08;39.52
66373;SHT30;53168;51.146;17.120;2023-07-22T18:53:49;19.91;39.84
66373;SHT30;53168;51.146;17.120;2023-07-22T18:56:19;19.77;40.16
66373;SHT30;53168;51.146;17.120;2023-07-22T18:58:48;19.63;40.57
66373;SHT30;53168;51.146;17.120;2023-07-22T19:01:18;19.48;40.94
66373;SHT30;53168;51.146;17.120;2023-07-22T19:03:47;19.33;41.45
66373;SHT30;53168;51.146;17.120;2023-07-22T19:06:17;19.21;41.82
66373;SHT30;53168;51.146;17.120;2023-07-22T19:08:47;19.08;42.17
66373;SHT30;53168;51.146;17.120;2023-07-22T19:11:16;18.95;42.38
66373;SHT30;53168;51.146;17.120;2023-07-22T19:13:46;18.83;42.76
66373;SHT30;53168;51.146;17.120;2023-07-22T19:16:16;18.70;42.99
66373;SHT30;53168;51.146;17.120;2023-07-22T19:18:49;18.60;43.39
66373;SHT30;53168;51.146;17.120;2023-07-22T19:21:18;18.48;43.65
66373;SHT30;53168;51.146;17.120;2023-07-22T19:23:48;18.38;44.06
66373;SHT30;53168;51.146;17.120;2023-07-22T19:26:18;18.29;44.38
66373;SHT30;53168;51.146;17.120;2023-07-22T19:28:47;18.19;44.70
66373;SHT30;53168;51.146;17.120;2023-07-22T19:31:17;18.08;44.94
66373;SHT30;53168;51.146;17.120;2023-07-22T19:33:47;17.98;45.13
66373;SHT30;53168;51.146;17.120;2023-07-22T19:36:16;17.91;45.47
66373;SHT30;53168;51.146;17.120;2023-07-22T19:38:46;17.83;45.71
66373;SHT30;53168;51.146;17.120;2023-07-22T19:41:16;17.76;45.82
66373;SHT30;53168;51.146;17.120;2023-07-22T19:43:45;17.67;46.02
66373;SHT30;53168;51.146;17.120;2023-07-22T19:46:17;17.59;46.49
66373;SHT30;53168;51.146;17.120;2023-07-22T19:48:47;17.53;46.68
66373;SHT30;53168;51.146;17.120;2023-07-22T19:51:16;17.46;46.92
66373;SHT30;53168;51.146;17.120;2023-07-22T19:53:47;17.36;46.93
66373;SHT30;53168;51.146;17.120;2023-07-22T19:56:17;17.29;47.10
66373;SHT30;53168;51.146;17.120;2023-07-22T19:58:47;17.24;47.40
66373;SHT30;53168;51.146;17.120;2023-07-22T20:01:16;17.19;47.81
66373;SHT30;53168;51.146;17.120;2023-07-22T20:03:58;17.18;48.13
66373;SHT30;53168;51.146;17.120;2023-07-22T20:06:50;17.14;48.32
66373;SHT30;53168;51.146;17.120;2023-07-22T20:09:35;17.10;48.96
66373;SHT30;53168;51.146;17.120;2023-07-22T20:12:07;17.07;49.33
66373;SHT30;53168;51.146;17.120;2023-07-22T20:14:43;17.01;49.58
66373;SHT30;53168;51.146;17.120;2023-07-22T20:17:53;16.94;50.13
66373;SHT30;53168;51.146;17.120;2023-07-22T20:20:43;16.86;50.41
66373;SHT30;53168;51.146;17.120;2023-07-22T20:23:14;16.80;50.72
66373;SHT30;53168;51.146;17.120;2023-07-22T20:25:58;16.71;50.78
66373;SHT30;53168;51.146;17.120;2023-07-22T20:28:57;16.65;51.32
66373;SHT30;53168;51.146;17.120;2023-07-22T20:31:33;16.62;51.67
66373;SHT30;53168;51.146;17.120;2023-07-22T20:34:41;16.56;51.75
66373;SHT30;53168;51.146;17.120;2023-07-22T20:37:20;16.52;52.01
66373;SHT30;53168;51.146;17.120;2023-07-22T20:40:43;16.48;52.26
66373;SHT30;53168;51.146;17.120;2023-07-22T21:29:29;15.87;55.30
66373;SHT30;53168;51.146;17.120;2023-07-22T21:32:08;15.86;55.31
66373;SHT30;53168;51.146;17.120;2023-07-22T21:35:15;15.82;55.66
66373;SHT30;53168;51.146;17.120;2023-07-22T21:38:53;15.81;55.80
66373;SHT30;53168;51.146;17.120;2023-07-22T21:42:30;15.78;56.13
66373;SHT30;53168;51.146;17.120;2023-07-22T21:46:30;15.78;56.38
66373;SHT30;53168;51.146;17.120;2023-07-22T21:49:04;15.77;56.50
66373;SHT30;53168;51.146;17.120;2023-07-22T21:51:38;15.77;56.61
66373;SHT30;53168;51.146;17.120;2023-07-22T21:54:14;15.77;56.62
66373;SHT30;53168;51.146;17.120;2023-07-22T21:56:48;15.74;56.71
66373;SHT30;53168;51.146;17.120;2023-07-22T21:59:21;15.75;56.87
66373;SHT30;53168;51.146;17.120;2023-07-22T22:01:55;15.72;56.76
66373;SHT30;53168;51.146;17.120;2023-07-22T22:04:29;15.69;56.88
66373;SHT30;53168;51.146;17.120;2023-07-22T22:07:03;15.68;56.87
66373;SHT30;53168;51.146;17.120;2023-07-22T22:09:38;15.67;56.90
66373;SHT30;53168;51.146;17.120;2023-07-22T22:12:12;15.67;57.17
66373;SHT30;53168;51.146;17.120;2023-07-22T22:14:46;15.65;57.12
66373;SHT30;53168;51.146;17.120;2023-07-22T22:17:23;15.62;57.26
66373;SHT30;53168;51.146;17.120;2023-07-22T22:19:57;15.60;57.36
66373;SHT30;53168;51.146;17.120;2023-07-22T22:22:30;15.56;57.47
66373;SHT30;53168;51.146;17.120;2023-07-22T22:25:05;15.49;57.57
66373;SHT30;53168;51.146;17.120;2023-07-22T22:27:40;15.45;57.85
66373;SHT30;53168;51.146;17.120;2023-07-22T22:30:14;15.43;58.03
66373;SHT30;53168;51.146;17.120;2023-07-22T22:32:48;15.45;58.02
66373;SHT30;53168;51.146;17.120;2023-07-22T22:35:23;15.44;58.07
66373;SHT30;53168;51.146;17.120;2023-07-22T22:37:56;15.43;58.26
66373;SHT30;53168;51.146;17.120;2023-07-22T22:40:31;15.41;58.43
66373;SHT30;53168;51.146;17.120;2023-07-22T22:43:29;15.39;58.53